Time;durP1;ratioP1;P1;durP2;ratioP2;P2;SDS_P1;SDS_P2;PMS_P1;PMS_P2;Temp;Humidity;BMP_temperature;BMP_pressure;BME280_temperature;BME280_humidity;BME280_pressure;Samples;Min_cycle;Max_cycle;Signal;HPM_P1;HPM_P2
2023/09/20 00:01:22;;;;;;;0.67;0.47;;;;;;;19.61;62.67;99700.97;4996024;28;20223;-79
2023/09/20 00:03:48;;;;;;;0.50;0.40;;;;;;;19.79;62.21;99712.91;4997251;28;20233;-79
2023/09/20 00:06:14;;;;;;;1.00;0.97;;;;;;;19.85;62.26;99728.00;4995832;28;20296;-79
2023/09/20 00:08:39;;;;;;;0.67;0.53;;;;;;;19.79;62.30;99731.53;4995910;28;20181;-79
2023/09/20 00:11:08;;;;;;;0.17;0.17;;;;;;;19.59;63.06;99718.00;4996667;28;20192;-77
2023/09/20 00:13:34;;;;;;;5.13;0.67;;;;;;;19.57;63.03;99714.81;4997639;28;20292;-79
2023/09/20 00:16:00;;;;;;;0.47;0.30;;;;;;;19.70;63.01;99737.44;4997084;28;20220;-79
2023/09/20 00:18:26;;;;;;;6.27;0.77;;;;;;;19.38;63.38;99703.22;4995588;28;20185;-79
2023/09/20 00:20:51;;;;;;;1.60;0.70;;;;;;;19.55;63.32;99738.56;4995091;28;20193;-78
2023/09/20 00:23:20;;;;;;;6.50;0.30;;;;;;;19.56;63.75;99746.50;4996781;28;20205;-79
2023/09/20 00:25:49;;;;;;;4.27;0.53;;;;;;;19.67;63.63;99765.91;4996832;28;20181;-79
2023/09/20 00:28:17;;;;;;;1.23;0.50;;;;;;;19.82;63.27;99758.47;4995206;28;20670;-79
2023/09/20 00:30:44;;;;;;;2.93;0.53;;;;;;;20.02;62.74;99765.28;4996315;28;20227;-79
2023/09/20 00:33:10;;;;;;;9.53;1.13;;;;;;;19.98;62.52;99749.81;4994760;28;20209;-78
2023/09/20 00:35:37;;;;;;;10.10;1.20;;;;;;;19.91;62.76;99756.91;4996622;28;20184;-80
2023/09/20 00:38:02;;;;;;;0.53;0.30;;;;;;;20.05;62.71;99760.91;4995316;28;20185;-79
2023/09/20 00:40:28;;;;;;;9.27;0.67;;;;;;;20.18;62.46;99773.25;4994907;28;20575;-78
2023/09/20 00:42:57;;;;;;;4.10;1.23;;;;;;;20.34;61.99;99775.66;4996198;28;20207;-78
2023/09/20 00:45:23;;;;;;;0.97;0.53;;;;;;;20.16;62.39;99754.22;4995241;28;20554;-79
2023/09/20 00:47:59;;;;;;;1.07;0.63;;;;;;;20.42;61.92;99763.41;4995956;28;20209;-78
2023/09/20 00:50:31;;;;;;;0.20;0.20;;;;;;;20.13;62.62;99749.47;4994319;28;20188;-79
2023/09/20 00:52:57;;;;;;;1.70;1.03;;;;;;;19.80;63.23;99735.88;4994653;28;20228;-78
2023/09/20 00:55:25;;;;;;;2.00;1.17;;;;;;;19.99;63.19;99751.41;4996101;28;20617;-78
2023/09/20 00:57:53;;;;;;;0.10;0.10;;;;;;;19.92;63.38;99733.53;4994348;28;20181;-78
2023/09/20 01:00:29;;;;;;;4.37;0.67;;;;;;;19.55;64.29;99717.19;4995263;28;20354;-79
2023/09/20 01:02:57;;;;;;;0.00;0.00;;;;;;;19.98;64.12;99758.94;4995601;28;20702;-78
2023/09/20 01:05:25;;;;;;;1.27;0.63;;;;;;;19.70;64.26;99731.09;4994823;28;20788;-79
2023/09/20 01:07:55;;;;;;;1.60;0.57;;;;;;;19.79;64.31;99735.09;4995624;28;20201;-80
2023/09/20 01:10:23;;;;;;;1.03;0.60;;;;;;;19.91;64.32;99765.22;4993785;28;20754;-77
2023/09/20 01:12:51;;;;;;;3.23;0.60;;;;;;;19.73;64.57;99736.66;4994392;28;20761;-79
2023/09/20 01:15:17;;;;;;;0.80;0.70;;;;;;;19.82;64.46;99755.72;4995498;28;20181;-77
2023/09/20 01:17:44;;;;;;;0.30;0.30;;;;;;;19.72;64.90;99743.38;4995558;28;20178;-78
2023/09/20 01:20:12;;;;;;;4.03;1.13;;;;;;;19.73;64.61;99744.19;4993505;28;20185;-78
2023/09/20 01:22:38;;;;;;;1.00;0.93;;;;;;;19.80;64.91;99744.19;4995380;28;20197;-78
2023/09/20 01:25:07;;;;;;;4.20;1.13;;;;;;;19.82;64.92;99750.16;4995390;28;20537;-79
2023/09/20 01:27:35;;;;;;;6.30;0.57;;;;;;;19.80;64.65;99742.22;4994255;28;20232;-78
2023/09/20 01:30:00;;;;;;;1.10;0.63;;;;;;;19.68;64.86;99741.78;4994561;28;20189;-78
2023/09/20 01:32:25;;;;;;;0.30;0.30;;;;;;;20.07;64.44;99761.31;4995173;28;20185;-79
2023/09/20 01:34:51;;;;;;;1.50;0.57;;;;;;;19.94;64.44;99749.78;4995272;28;20204;-79
2023/09/20 01:37:16;;;;;;;0.33;0.30;;;;;;;20.01;64.37;99758.13;4995237;28;20259;-78
2023/09/20 01:39:42;;;;;;;4.97;1.07;;;;;;;20.02;64.52;99759.72;4993290;28;20275;-79
2023/09/20 01:42:07;;;;;;;2.50;0.40;;;;;;;19.95;64.81;99748.59;4994263;28;20277;-78
2023/09/20 01:44:37;;;;;;;0.77;0.77;;;;;;;20.00;64.78;99744.66;4994191;28;20201;-77
2023/09/20 01:47:03;;;;;;;0.87;0.63;;;;;;;19.95;65.14;99762.47;4994249;28;20201;-78
2023/09/20 01:49:32;;;;;;;1.70;0.93;;;;;;;19.86;65.00;99743.44;4993882;28;20296;-78
2023/09/20 01:51:57;;;;;;;0.40;0.40;;;;;;;19.99;65.28;99763.28;4994561;28;20189;-77
2023/09/20 01:54:23;;;;;;;0.80;0.80;;;;;;;19.61;66.00;99731.47;4993746;28;20252;-78
2023/09/20 01:56:49;;;;;;;8.23;1.20;;;;;;;19.74;65.89;99743.78;4993993;28;20195;-77
2023/09/20 01:59:15;;;;;;;0.77;0.77;;;;;;;19.75;65.94;99736.25;4994167;28;20304;-78
2023/09/20 02:01:41;;;;;;;0.30;0.30;;;;;;;19.69;65.94;99727.53;4992632;28;20185;-77
2023/09/20 02:04:06;;;;;;;0.20;0.20;;;;;;;19.75;66.01;99745.38;4992813;28;20224;-78
2023/09/20 02:06:32;;;;;;;8.23;0.93;;;;;;;19.86;65.32;99731.56;4993751;28;20267;-79
2023/09/20 02:08:57;;;;;;;0.93;0.40;;;;;;;19.80;65.83;99746.97;4995248;28;20189;-79
2023/09/20 02:11:24;;;;;;;0.83;0.50;;;;;;;20.20;65.34;99768.09;4993782;28;20196;-79
2023/09/20 02:13:49;;;;;;;0.77;0.57;;;;;;;20.18;64.97;99767.69;4993119;28;20639;-79
2023/09/20 02:16:14;;;;;;;0.83;0.73;;;;;;;20.16;65.03;99757.00;4994857;28;20212;-79
2023/09/20 02:18:39;;;;;;;0.70;0.60;;;;;;;20.02;65.25;99747.84;4995361;28;20185;-78
2023/09/20 02:21:06;;;;;;;1.37;0.93;;;;;;;19.99;65.24;99743.88;4993510;28;20188;-79
2023/09/20 02:23:32;;;;;;;1.20;0.90;;;;;;;19.84;65.48;99737.50;4994067;28;20212;-79
2023/09/20 02:25:57;;;;;;;1.03;0.93;;;;;;;19.73;65.83;99719.25;4994589;28;20213;-79
2023/09/20 02:28:22;;;;;;;1.30;0.60;;;;;;;19.84;65.75;99737.50;4994777;28;20217;-79
2023/09/20 02:30:50;;;;;;;8.63;0.70;;;;;;;19.76;65.86;99726.75;4993393;28;20193;-79
2023/09/20 02:33:16;;;;;;;0.90;0.77;;;;;;;19.71;65.78;99733.50;4993535;28;20691;-79
2023/09/20 02:35:41;;;;;;;0.20;0.20;;;;;;;19.81;65.68;99735.47;4995067;28;20192;-79
2023/09/20 02:38:07;;;;;;;2.00;0.80;;;;;;;19.69;65.92;99729.53;4994752;28;20200;-79
2023/09/20 02:40:36;;;;;;;0.77;0.67;;;;;;;19.81;65.92;99729.94;4992911;28;20280;-78
2023/09/20 02:43:04;;;;;;;2.60;1.00;;;;;;;19.85;65.85;99739.09;4994089;28;20280;-79
2023/09/20 02:45:30;;;;;;;0.47;0.20;;;;;;;19.81;66.34;99741.03;4992951;28;20678;-79
2023/09/20 02:47:57;;;;;;;0.10;0.10;;;;;;;19.88;65.92;99737.50;4994269;28;20268;-79
2023/09/20 02:50:23;;;;;;;0.50;0.40;;;;;;;19.72;66.19;99723.19;4993650;28;20271;-79
2023/09/20 02:52:50;;;;;;;0.87;0.40;;;;;;;19.92;65.88;99754.94;4993804;28;20208;-78
2023/09/20 02:55:17;;;;;;;0.50;0.50;;;;;;;19.97;65.75;99740.72;4992736;28;20185;-77
2023/09/20 02:57:44;;;;;;;2.57;0.67;;;;;;;20.07;65.70;99736.34;4993406;28;20651;-78
2023/09/20 03:00:15;;;;;;;0.80;0.80;;;;;;;19.71;66.05;99713.28;4993253;28;20181;-78
2023/09/20 03:03:01;;;;;;;0.97;0.93;;;;;;;19.70;66.78;99725.56;4992953;28;20216;-79
2023/09/20 03:05:30;;;;;;;0.20;0.20;;;;;;;19.57;66.83;99703.75;4993689;28;20195;-79
2023/09/20 03:07:55;;;;;;;0.77;0.60;;;;;;;19.66;67.02;99722.75;4993231;28;20205;-78
2023/09/20 03:10:22;;;;;;;1.50;0.20;;;;;;;19.66;66.83;99713.66;4993351;28;20251;-79
2023/09/20 03:12:54;;;;;;;1.30;0.67;;;;;;;19.79;66.95;99735.09;4993492;28;20683;-78
2023/09/20 03:15:22;;;;;;;2.93;1.00;;;;;;;19.55;67.00;99702.56;4993591;28;20192;-79
2023/09/20 03:17:49;;;;;;;0.50;0.50;;;;;;;19.49;67.47;99715.16;4993513;28;20268;-78
2023/09/20 03:20:23;;;;;;;1.00;0.70;;;;;;;19.51;67.59;99713.56;4993333;28;20671;-78
2023/09/20 03:22:59;;;;;;;3.40;0.80;;;;;;;19.50;67.58;99713.97;4993400;28;20209;-78
2023/09/20 03:25:28;;;;;;;0.23;0.23;;;;;;;19.69;67.07;99719.22;4993137;28;20176;-79
2023/09/20 03:27:53;;;;;;;1.20;0.87;;;;;;;19.59;67.16;99706.13;4993385;28;20273;-80
2023/09/20 03:30:20;;;;;;;0.40;0.20;;;;;;;19.74;66.95;99715.28;4992932;28;20617;-78
2023/09/20 03:32:50;;;;;;;0.63;0.63;;;;;;;19.63;66.83;99709.69;4993329;28;20584;-79
2023/09/20 03:35:16;;;;;;;0.10;0.10;;;;;;;19.82;66.92;99728.78;4993150;28;20556;-78
2023/09/20 03:37:43;;;;;;;0.40;0.40;;;;;;;19.53;67.25;99700.16;4992970;28;20212;-79
2023/09/20 03:40:17;;;;;;;0.73;0.73;;;;;;;19.56;67.69;99706.91;4992811;28;20953;-79
2023/09/20 03:42:46;;;;;;;0.00;0.00;;;;;;;19.69;67.18;99718.44;4993022;28;20806;-78
2023/09/20 03:45:16;;;;;;;1.00;0.43;;;;;;;19.90;66.98;99735.13;4991763;28;20617;-79
2023/09/20 03:47:42;;;;;;;0.33;0.33;;;;;;;19.73;67.11;99710.91;4992997;28;20292;-79
2023/09/20 03:50:09;;;;;;;1.70;1.47;;;;;;;19.87;66.76;99728.41;4992509;28;20677;-78
2023/09/20 03:52:37;;;;;;;0.53;0.53;;;;;;;19.82;66.85;99714.94;4993350;28;20177;-78
2023/09/20 03:55:03;;;;;;;0.83;0.23;;;;;;;20.00;66.60;99733.59;4991570;28;20220;-78
2023/09/20 03:57:28;;;;;;;0.00;0.00;;;;;;;20.09;66.38;99723.69;4992946;28;20173;-78
2023/09/20 03:59:54;;;;;;;10.20;1.10;;;;;;;19.93;66.68;99726.03;4991104;28;20199;-78
2023/09/20 04:02:23;;;;;;;0.23;0.20;;;;;;;19.83;66.93;99707.41;4991370;28;20185;-79
2023/09/20 04:05:00;;;;;;;0.10;0.10;;;;;;;19.98;67.19;99725.66;4992720;28;20204;-78
2023/09/20 04:07:26;;;;;;;0.03;0.03;;;;;;;20.08;66.63;99721.31;4992637;28;20228;-79
2023/09/20 04:09:53;;;;;;;0.30;0.30;;;;;;;19.93;66.67;99709.38;4992532;28;20204;-77
2023/09/20 04:12:18;;;;;;;0.97;0.97;;;;;;;20.01;66.60;99722.09;4992656;28;20185;-78
2023/09/20 04:14:44;;;;;;;0.30;0.30;;;;;;;19.95;66.60;99715.31;4992758;28;20195;-79
2023/09/20 04:17:09;;;;;;;0.83;0.80;;;;;;;19.72;67.22;99687.97;4991513;28;20276;-78
2023/09/20 04:19:39;;;;;;;0.70;0.43;;;;;;;19.73;67.41;99692.31;4992345;28;20593;-79
2023/09/20 04:22:08;;;;;;;2.17;0.70;;;;;;;19.67;67.51;99693.06;4993050;28;20649;-78
2023/09/20 04:24:33;;;;;;;0.63;0.63;;;;;;;19.85;67.52;99705.03;4992391;28;20564;-79
2023/09/20 04:27:02;;;;;;;0.40;0.27;;;;;;;19.79;67.54;99696.28;4992792;28;20232;-78
2023/09/20 04:29:28;;;;;;;0.10;0.10;;;;;;;19.83;67.49;99705.41;4993664;28;20187;-79
2023/09/20 04:31:55;;;;;;;0.57;0.20;;;;;;;19.83;67.42;99694.34;4994220;28;20268;-79
2023/09/20 04:34:20;;;;;;;0.80;0.80;;;;;;;19.91;66.88;99698.69;4992816;28;20205;-78
2023/09/20 04:36:45;;;;;;;0.40;0.40;;;;;;;19.86;67.17;99698.28;4995202;28;20188;-78
2023/09/20 04:39:11;;;;;;;0.00;0.00;;;;;;;19.79;67.42;99695.47;4995942;28;20276;-78
2023/09/20 04:41:37;;;;;;;0.10;0.10;;;;;;;19.85;67.37;99693.94;4995822;28;20287;-78
2023/09/20 04:44:06;;;;;;;0.20;0.20;;;;;;;19.84;67.24;99707.00;4997189;28;20205;-79
2023/09/20 04:46:35;;;;;;;0.00;0.00;;;;;;;19.74;67.75;99701.41;4997448;28;20208;-78
2023/09/20 04:49:05;;;;;;;1.90;0.97;;;;;;;19.53;68.17;99691.03;4995541;28;20185;-79
2023/09/20 04:51:30;;;;;;;0.70;0.70;;;;;;;19.50;68.54;99697.34;4996796;28;20276;-77
2023/09/20 04:53:56;;;;;;;1.03;0.90;;;;;;;19.57;68.00;99700.97;4997009;28;20201;-77
2023/09/20 04:56:21;;;;;;;0.10;0.10;;;;;;;19.54;68.22;99698.16;4996046;28;20633;-80
2023/09/20 04:58:47;;;;;;;1.80;0.73;;;;;;;19.67;68.04;99716.03;4994326;28;20227;-81
2023/09/20 05:01:13;;;;;;;0.93;0.90;;;;;;;19.49;68.62;99699.31;4993397;28;20213;-79
2023/09/20 05:03:39;;;;;;;0.77;0.70;;;;;;;19.52;68.58;99709.59;4993545;28;20240;-79
2023/09/20 05:06:05;;;;;;;0.27;0.17;;;;;;;19.89;67.81;99737.09;4993587;28;20290;-79
2023/09/20 05:08:31;;;;;;;1.60;1.20;;;;;;;20.08;67.39;99735.16;4991853;28;20193;-78
2023/09/20 05:10:56;;;;;;;1.30;0.90;;;;;;;20.88;65.26;99754.31;4993338;28;20188;-79
2023/09/20 05:13:22;;;;;;;0.60;0.40;;;;;;;20.26;65.73;99713.81;4993557;28;20724;-79
2023/09/20 05:15:50;;;;;;;4.23;1.13;;;;;;;20.18;65.99;99709.44;4994805;28;20177;-79
2023/09/20 05:18:16;;;;;;;0.00;0.00;;;;;;;20.54;65.63;99732.47;4994936;28;20644;-79
2023/09/20 05:20:42;;;;;;;0.10;0.10;;;;;;;20.68;65.08;99726.13;4993222;28;20196;-78
2023/09/20 05:23:08;;;;;;;2.20;0.60;;;;;;;20.52;64.82;99707.09;4993245;28;20205;-78
2023/09/20 05:25:34;;;;;;;0.00;0.00;;;;;;;20.79;64.50;99736.06;4993293;28;20182;-79
2023/09/20 05:27:59;;;;;;;0.30;0.07;;;;;;;20.64;64.83;99709.50;4994464;28;20234;-79
2023/09/20 05:30:25;;;;;;;0.00;0.00;;;;;;;20.73;64.77;99720.19;4994242;28;20310;-79
2023/09/20 05:32:51;;;;;;;2.63;0.77;;;;;;;20.67;64.62;99711.47;4994716;28;20292;-79
2023/09/20 05:35:18;;;;;;;0.00;0.00;;;;;;;20.88;64.65;99737.63;4994683;28;20201;-78
2023/09/20 05:37:44;;;;;;;0.00;0.00;;;;;;;20.91;64.89;99739.63;4989557;28;20181;-79
2023/09/20 05:40:18;;;;;;;0.47;0.47;;;;;;;20.92;63.95;99730.09;4989804;28;20185;-79
2023/09/20 05:42:45;;;;;;;4.00;1.03;;;;;;;20.45;65.01;99702.38;4993481;28;20300;-81
2023/09/20 05:45:10;;;;;;;0.00;0.00;;;;;;;20.57;65.35;99720.59;4994058;28;20200;-78
2023/09/20 05:47:36;;;;;;;1.93;0.67;;;;;;;20.72;64.68;99719.41;4994925;28;20209;-79
2023/09/20 05:50:02;;;;;;;1.07;0.57;;;;;;;20.58;65.31;99730.53;4992840;28;20572;-78
2023/09/20 05:52:28;;;;;;;0.40;0.40;;;;;;;20.52;65.37;99706.31;4993428;28;20267;-79
2023/09/20 05:54:53;;;;;;;2.47;0.57;;;;;;;20.06;66.13;99688.41;4994285;28;20256;-79
2023/09/20 05:57:19;;;;;;;0.00;0.00;;;;;;;20.41;66.15;99723.78;4994682;28;20246;-78
2023/09/20 05:59:45;;;;;;;0.10;0.10;;;;;;;20.53;66.00;99736.44;4992889;28;20185;-79
2023/09/20 06:02:10;;;;;;;0.00;0.00;;;;;;;20.45;66.02;99732.88;4993120;28;20195;-80
2023/09/20 06:04:38;;;;;;;0.33;0.20;;;;;;;20.64;65.93;99737.25;4994599;28;20232;-79
2023/09/20 06:07:04;;;;;;;0.33;0.33;;;;;;;20.65;65.37;99722.19;4987792;28;20211;-79
2023/09/20 06:09:30;;;;;;;1.37;1.03;;;;;;;20.43;65.67;99710.28;4987574;28;20185;-78
2023/09/20 06:11:55;;;;;;;0.00;0.00;;;;;;;20.43;65.96;99723.38;4985803;28;20178;-79
2023/09/20 06:14:22;;;;;;;0.00;0.00;;;;;;;20.28;66.38;99719.75;4987047;28;20217;-78
2023/09/20 06:16:47;;;;;;;0.03;0.03;;;;;;;20.25;66.52;99700.31;4982543;28;20174;-78
2023/09/20 06:19:14;;;;;;;2.83;1.10;;;;;;;20.24;66.53;99709.84;4992538;28;20173;-78
2023/09/20 06:21:39;;;;;;;0.20;0.20;;;;;;;20.52;66.28;99722.97;4988577;28;20208;-78
2023/09/20 06:24:10;;;;;;;0.10;0.10;;;;;;;20.55;66.17;99736.06;4985765;28;20762;-79
2023/09/20 06:26:37;;;;;;;0.00;0.00;;;;;;;20.24;66.61;99707.06;4994024;28;20632;-80
2023/09/20 06:29:02;;;;;;;1.50;0.70;;;;;;;20.48;66.19;99718.22;4992218;28;20595;-78
2023/09/20 06:31:28;;;;;;;12.43;2.53;;;;;;;20.26;66.56;99716.59;4992420;28;20181;-78
2023/09/20 06:33:53;;;;;;;0.53;0.53;;;;;;;20.45;66.10;99713.47;4993808;28;20201;-80
2023/09/20 06:36:22;;;;;;;0.97;0.63;;;;;;;20.44;65.92;99709.09;4990484;28;20188;-79
2023/09/20 06:38:48;;;;;;;0.00;0.00;;;;;;;20.63;66.36;99732.09;4984887;28;20188;-78
2023/09/20 06:41:13;;;;;;;0.00;0.00;;;;;;;20.54;66.56;99729.69;4987103;28;20189;-79
2023/09/20 06:43:39;;;;;;;2.23;1.27;;;;;;;20.33;66.36;99697.16;4981819;28;20205;-77
2023/09/20 06:46:06;;;;;;;0.33;0.33;;;;;;;20.28;67.05;99710.66;4987247;28;20181;-80
2023/09/20 06:48:32;;;;;;;0.83;0.83;;;;;;;20.15;67.08;99697.16;4992435;28;20211;-80
2023/09/20 06:50:57;;;;;;;0.77;0.73;;;;;;;20.10;67.42;99691.97;4992402;28;20266;-79
2023/09/20 06:53:23;;;;;;;3.77;1.13;;;;;;;19.94;67.72;99680.47;4992263;28;20300;-79
2023/09/20 06:55:49;;;;;;;7.20;1.00;;;;;;;20.07;67.63;99701.09;4993172;28;20189;-79
2023/09/20 06:58:15;;;;;;;0.17;0.17;;;;;;;20.38;67.25;99726.50;4992176;28;20185;-79
2023/09/20 07:00:41;;;;;;;0.27;0.27;;;;;;;20.50;66.80;99717.81;4991346;28;20184;-79
2023/09/20 07:03:07;;;;;;;0.37;0.37;;;;;;;20.32;66.62;99709.47;4990377;28;20213;-77
2023/09/20 07:05:32;;;;;;;0.07;0.07;;;;;;;20.99;65.82;99743.97;4986079;28;20191;-80
2023/09/20 07:08:01;;;;;;;0.57;0.57;;;;;;;20.78;66.07;99739.22;4992529;28;20209;-79
2023/09/20 07:10:31;;;;;;;0.00;0.00;;;;;;;21.18;65.60;99763.00;4993730;28;20216;-79
2023/09/20 07:12:57;;;;;;;0.00;0.00;;;;;;;21.34;65.05;99749.50;4993701;28;20251;-80
2023/09/20 07:15:25;;;;;;;0.00;0.00;;;;;;;20.71;66.16;99728.13;4992882;28;20177;-80
2023/09/20 07:17:58;;;;;;;0.40;0.40;;;;;;;21.08;65.56;99741.56;4993604;28;20173;-79
2023/09/20 07:20:31;;;;;;;0.00;0.00;;;;;;;21.34;64.79;99762.59;4993349;28;20216;-79
2023/09/20 07:22:58;;;;;;;0.00;0.00;;;;;;;20.85;66.22;99742.00;4991520;28;20197;-80
2023/09/20 07:25:27;;;;;;;3.67;1.60;;;;;;;20.36;67.09;99723.31;4993972;28;20231;-80
2023/09/20 07:27:55;;;;;;;9.13;0.33;;;;;;;20.64;66.95;99733.69;4993199;28;20591;-80
2023/09/20 07:30:22;;;;;;;0.33;0.33;;;;;;;20.37;67.43;99722.13;4993057;28;20192;-80
2023/09/20 07:32:50;;;;;;;0.20;0.10;;;;;;;20.46;67.53;99733.69;4993304;28;20196;-79
2023/09/20 07:35:29;;;;;;;1.00;0.83;;;;;;;20.24;68.14;99707.06;4993594;28;20192;-80
2023/09/20 07:37:57;;;;;;;0.00;0.00;;;;;;;20.51;67.88;99727.72;4995297;28;20173;-81
2023/09/20 07:40:30;;;;;;;1.00;0.67;;;;;;;20.23;68.55;99694.38;4993167;28;20184;-80
2023/09/20 07:43:03;;;;;;;0.83;0.83;;;;;;;20.52;68.13;99722.97;4992877;28;20766;-81
2023/09/20 07:45:38;;;;;;;1.17;0.60;;;;;;;20.49;68.17;99710.69;4992937;28;20191;-80
2023/09/20 07:48:12;;;;;;;1.13;0.83;;;;;;;20.46;68.00;99703.94;4994272;28;20715;-81
2023/09/20 07:50:41;;;;;;;9.53;0.90;;;;;;;20.71;67.43;99706.72;4994165;28;20188;-81
2023/09/20 07:53:10;;;;;;;4.23;0.73;;;;;;;20.84;67.50;99725.75;4993039;28;20288;-78
2023/09/20 07:55:41;;;;;;;1.67;1.40;;;;;;;20.92;67.35;99717.00;4993906;28;20180;-80
2023/09/20 07:58:08;;;;;;;1.70;1.23;;;;;;;20.69;67.66;99686.91;4992876;28;20181;-80
2023/09/20 08:00:40;;;;;;;0.20;0.20;;;;;;;20.87;67.80;99714.63;4995990;28;20192;-80
2023/09/20 08:03:05;;;;;;;1.30;0.80;;;;;;;20.99;67.48;99717.00;4993566;28;20197;-87
2023/09/20 08:05:31;;;;;;;9.57;0.27;;;;;;;21.08;67.10;99706.25;4994758;28;20269;-78
2023/09/20 08:07:57;;;;;;;0.20;0.20;;;;;;;21.07;67.14;99706.66;4993615;28;20607;-80
2023/09/20 08:10:22;;;;;;;1.30;1.17;;;;;;;21.03;67.26;99706.66;4991368;28;20271;-79
2023/09/20 08:12:47;;;;;;;3.80;0.73;;;;;;;21.24;66.91;99708.59;4994490;28;20239;-80
2023/09/20 08:15:13;;;;;;;0.50;0.50;;;;;;;21.53;65.96;99725.19;4996715;28;20559;-80
2023/09/20 08:20:23;;;;;;;0.70;0.70;;;;;;;21.26;66.13;99691.53;4996146;28;20195;-80
2023/09/20 09:01:19;;;;;;;0.97;0.73;;;;;;;22.78;62.98;99764.22;4992867;28;20327;-78
2023/09/20 09:03:45;;;;;;;1.50;1.40;;;;;;;22.75;63.05;99763.06;4992202;28;20205;-78
2023/09/20 09:06:11;;;;;;;0.00;0.00;;;;;;;22.92;62.90;99764.13;4984861;28;20220;-79
2023/09/20 09:08:36;;;;;;;0.40;0.40;;;;;;;23.27;62.42;99776.13;4993223;28;20177;-80
2023/09/20 09:11:02;;;;;;;1.83;0.80;;;;;;;22.47;62.12;99719.53;4994034;28;20228;-79
2023/09/20 09:13:28;;;;;;;1.30;1.03;;;;;;;22.69;61.95;99734.06;4994503;28;20197;-80
2023/09/20 09:15:55;;;;;;;0.50;0.33;;;;;;;22.90;62.26;99743.47;4993391;28;20189;-79
2023/09/20 09:18:21;;;;;;;0.37;0.23;;;;;;;23.27;62.16;99764.97;4993310;28;20185;-79
2023/09/20 09:20:47;;;;;;;0.10;0.10;;;;;;;22.97;61.92;99735.03;4994254;28;20192;-79
2023/09/20 09:23:28;;;;;;;0.20;0.20;;;;;;;23.34;60.82;99765.72;4992919;28;20209;-78
2023/09/20 09:25:53;;;;;;;4.13;0.43;;;;;;;23.28;60.66;99755.41;4994369;28;20185;-79
2023/09/20 09:28:19;;;;;;;0.63;0.50;;;;;;;23.03;60.14;99723.03;4994742;28;20200;-80
2023/09/20 09:30:50;;;;;;;0.17;0.17;;;;;;;23.30;59.65;99711.22;4994444;28;20197;-79
2023/09/20 09:33:16;;;;;;;0.00;0.00;;;;;;;23.48;59.88;99725.72;4990953;28;20229;-78
2023/09/20 09:35:45;;;;;;;2.87;0.50;;;;;;;23.11;59.51;99696.66;4991684;28;20216;-78
2023/09/20 09:38:12;;;;;;;0.50;0.50;;;;;;;23.48;60.08;99724.94;4991212;28;20604;-79
2023/09/20 09:40:55;;;;;;;0.00;0.00;;;;;;;23.90;58.52;99730.00;4990980;28;20182;-78
2023/09/20 09:43:23;;;;;;;0.50;0.50;;;;;;;23.90;58.42;99718.84;4984851;28;20592;-78
2023/09/20 09:45:49;;;;;;;0.97;0.30;;;;;;;24.07;58.04;99728.19;4991531;28;20969;-79
2023/09/20 09:48:16;;;;;;;0.77;0.50;;;;;;;23.84;57.99;99722.50;4989418;28;20205;-79
2023/09/20 09:50:45;;;;;;;0.00;0.00;;;;;;;24.41;57.66;99758.81;4981642;28;20646;-79
2023/09/20 09:53:13;;;;;;;0.67;0.53;;;;;;;24.09;57.71;99719.38;4993556;28;20201;-78
2023/09/20 09:55:41;;;;;;;0.87;0.50;;;;;;;23.95;57.91;99692.47;4993859;28;20233;-78
2023/09/20 09:58:12;;;;;;;1.07;0.53;;;;;;;24.00;58.00;99717.09;4991757;28;20181;-78
2023/09/20 10:00:40;;;;;;;1.37;0.83;;;;;;;23.86;58.54;99722.88;4992015;28;20678;-83
2023/09/20 10:03:29;;;;;;;4.63;0.30;;;;;;;24.32;57.25;99728.63;4994419;28;20214;-79
2023/09/20 10:06:05;;;;;;;0.57;0.57;;;;;;;24.49;57.35;99718.38;4994130;28;20182;-78
2023/09/20 10:08:37;;;;;;;0.20;0.20;;;;;;;24.73;56.57;99730.34;4993666;28;20239;-79
2023/09/20 10:11:05;;;;;;;1.40;0.20;;;;;;;24.86;56.37;99736.13;4994155;28;20208;-79
2023/09/20 10:13:32;;;;;;;0.70;0.70;;;;;;;25.32;55.95;99771.69;4993503;28;20214;-79
2023/09/20 10:15:58;;;;;;;0.30;0.30;;;;;;;25.73;55.17;99787.28;4993464;28;20213;-79
2023/09/20 10:18:31;;;;;;;1.67;0.70;;;;;;;25.25;55.54;99746.63;4994775;28;20193;-77
2023/09/20 10:21:14;;;;;;;0.30;0.30;;;;;;;25.98;54.90;99776.38;4992551;28;20186;-78
2023/09/20 10:23:42;;;;;;;1.03;0.53;;;;;;;25.63;54.42;99744.28;4994699;28;20706;-78
2023/09/20 10:26:15;;;;;;;0.80;0.60;;;;;;;25.49;54.40;99685.84;4993166;28;20648;-79
2023/09/20 10:28:44;;;;;;;0.20;0.20;;;;;;;25.99;54.01;99735.94;4994152;28;20559;-79
2023/09/20 10:31:18;;;;;;;0.37;0.30;;;;;;;24.90;56.29;99683.78;4992425;28;20646;-77
2023/09/20 10:33:51;;;;;;;1.60;0.47;;;;;;;24.50;57.54;99655.72;4993424;28;20228;-79
2023/09/20 10:36:30;;;;;;;0.00;0.00;;;;;;;24.97;57.82;99705.19;4994074;28;20185;-79
2023/09/20 10:39:31;;;;;;;0.83;0.43;;;;;;;24.42;57.30;99645.09;4993952;28;20190;-79
2023/09/20 10:42:08;;;;;;;1.03;0.57;;;;;;;24.56;58.18;99689.53;4915223;29;20201;-78
2023/09/20 10:44:38;;;;;;;0.00;0.00;;;;;;;24.80;57.11;99707.88;4983883;28;20268;-78
2023/09/20 10:47:08;;;;;;;0.70;0.70;;;;;;;24.61;57.64;99664.72;4992292;28;20675;-77
2023/09/20 10:49:55;;;;;;;0.37;0.37;;;;;;;24.76;58.12;99689.63;4991956;28;20190;-79
2023/09/20 10:52:32;;;;;;;8.20;0.57;;;;;;;24.76;57.90;99690.41;4992232;28;20201;-79
2023/09/20 10:55:33;;;;;;;0.40;0.40;;;;;;;24.70;58.31;99680.13;4987201;28;20193;-78
2023/09/20 10:57:59;;;;;;;2.10;1.00;;;;;;;24.56;58.33;99675.56;4993688;28;20648;-78
2023/09/20 11:00:30;;;;;;;0.37;0.37;;;;;;;24.77;58.10;99672.41;4993145;28;20285;-78
2023/09/20 11:02:56;;;;;;;0.67;0.57;;;;;;;24.48;58.72;99669.34;4992719;28;20733;-76
2023/09/20 11:05:26;;;;;;;0.40;0.40;;;;;;;24.59;58.17;99669.94;4993348;28;20273;-78
2023/09/20 11:07:54;;;;;;;1.43;0.83;;;;;;;24.41;58.32;99660.28;4993366;28;20236;-77
2023/09/20 11:10:20;;;;;;;1.13;0.90;;;;;;;24.87;57.87;99676.22;4989506;28;20182;-78
2023/09/20 11:12:46;;;;;;;0.33;0.30;;;;;;;24.98;57.64;99684.41;4993250;28;20211;-78
2023/09/20 11:15:13;;;;;;;13.03;0.70;;;;;;;25.31;58.13;99714.13;4993346;28;20561;-78
2023/09/20 11:17:39;;;;;;;1.57;0.60;;;;;;;24.93;58.62;99675.31;4993420;28;20189;-77
2023/09/20 11:20:06;;;;;;;0.40;0.40;;;;;;;25.29;58.61;99719.38;4993096;28;20185;-78
2023/09/20 11:22:32;;;;;;;9.23;0.93;;;;;;;25.32;57.05;99687.78;4993442;28;20654;-78
2023/09/20 11:24:57;;;;;;;0.63;0.53;;;;;;;24.95;56.53;99671.28;4991759;28;20224;-77
2023/09/20 11:27:23;;;;;;;0.20;0.20;;;;;;;25.43;56.49;99705.13;4993099;28;20735;-76
2023/09/20 11:29:49;;;;;;;0.30;0.30;;;;;;;25.41;56.43;99712.38;4992708;28;20274;-78
2023/09/20 11:32:15;;;;;;;1.80;0.73;;;;;;;25.13;56.90;99680.16;4989153;28;20269;-78
2023/09/20 11:34:50;;;;;;;0.23;0.20;;;;;;;25.39;56.52;99698.03;4985528;28;20217;-78
2023/09/20 11:37:20;;;;;;;0.10;0.10;;;;;;;25.92;56.11;99729.72;4991215;28;20259;-77
2023/09/20 11:39:47;;;;;;;0.00;0.00;;;;;;;26.33;55.83;99754.41;4992737;28;20184;-77
2023/09/20 11:42:26;;;;;;;0.40;0.30;;;;;;;26.20;55.36;99723.50;4992842;28;20222;-78
2023/09/20 11:45:05;;;;;;;0.30;0.27;;;;;;;26.09;55.66;99726.53;4992917;28;20187;-76
2023/09/20 11:47:31;;;;;;;0.50;0.50;;;;;;;26.18;55.31;99725.13;4995070;28;20218;-77
2023/09/20 11:49:58;;;;;;;0.10;0.10;;;;;;;26.03;54.97;99689.06;4994689;28;20232;-78
2023/09/20 11:52:24;;;;;;;0.93;0.60;;;;;;;26.33;55.34;99720.78;4995118;28;20191;-76
2023/09/20 11:54:49;;;;;;;0.13;0.10;;;;;;;26.93;53.48;99738.16;4996045;28;20535;-77
2023/09/20 11:57:16;;;;;;;3.40;0.50;;;;;;;26.58;54.58;99712.56;4995182;28;20182;-78
2023/09/20 11:59:43;;;;;;;0.67;0.50;;;;;;;26.82;53.98;99740.44;4995695;28;20318;-76
2023/09/20 12:02:12;;;;;;;0.30;0.30;;;;;;;26.65;53.53;99708.81;4995948;28;20195;-78
2023/09/20 12:04:40;;;;;;;0.20;0.20;;;;;;;26.74;54.96;99722.19;4995514;28;20205;-78
2023/09/20 12:07:07;;;;;;;0.63;0.63;;;;;;;25.40;57.07;99668.84;4996547;28;20212;-79
2023/09/20 12:09:33;;;;;;;0.27;0.27;;;;;;;25.49;56.51;99664.25;4996006;28;20188;-78
2023/09/20 12:11:58;;;;;;;0.93;0.40;;;;;;;25.20;57.01;99646.47;4996553;28;20192;-78
2023/09/20 12:14:24;;;;;;;0.27;0.27;;;;;;;25.40;57.10;99666.03;4995599;28;20589;-79
2023/09/20 12:16:50;;;;;;;0.13;0.07;;;;;;;25.63;56.24;99673.56;4996482;28;20700;-78
2023/09/20 12:19:18;;;;;;;0.30;0.30;;;;;;;25.62;56.67;99683.19;4996204;28;20188;-78